sensor_id;sensor_type;location;lat;lon;timestamp;P1;durP1;ratioP1;P2;durP2;ratioP2
62037;SDS011;47991;42.974;12.082;2023-05-24T00:00:35;10.20;;;5.00;;
62037;SDS011;47991;42.974;12.082;2023-05-24T00:03:22;10.40;;;4.60;;
62037;SDS011;47991;42.974;12.082;2023-05-24T00:05:49;9.30;;;5.20;;
62037;SDS011;47991;42.974;12.082;2023-05-24T00:08:17;10.50;;;4.70;;
62037;SDS011;47991;42.974;12.082;2023-05-24T00:10:44;9.30;;;4.60;;
62037;SDS011;47991;42.974;12.082;2023-05-24T00:13:11;9.30;;;4.60;;
62037;SDS011;47991;42.974;12.082;2023-05-24T00:15:38;8.90;;;4.10;;
62037;SDS011;47991;42.974;12.082;2023-05-24T00:18:05;10.60;;;4.50;;
62037;SDS011;47991;42.974;12.082;2023-05-24T00:20:32;8.10;;;4.50;;
62037;SDS011;47991;42.974;12.082;2023-05-24T00:22:58;9.00;;;4.30;;
62037;SDS011;47991;42.974;12.082;2023-05-24T00:25:25;9.90;;;5.10;;
62037;SDS011;47991;42.974;12.082;2023-05-24T00:27:52;12.70;;;4.80;;
62037;SDS011;47991;42.974;12.082;2023-05-24T00:30:19;8.40;;;4.40;;
62037;SDS011;47991;42.974;12.082;2023-05-24T00:32:46;9.10;;;4.40;;
62037;SDS011;47991;42.974;12.082;2023-05-24T00:35:12;10.40;;;4.90;;
62037;SDS011;47991;42.974;12.082;2023-05-24T00:37:39;9.80;;;4.30;;
62037;SDS011;47991;42.974;12.082;2023-05-24T00:40:10;8.10;;;4.50;;
62037;SDS011;47991;42.974;12.082;2023-05-24T00:42:38;11.10;;;4.90;;
62037;SDS011;47991;42.974;12.082;2023-05-24T00:45:05;8.90;;;4.30;;
62037;SDS011;47991;42.974;12.082;2023-05-24T00:47:33;12.10;;;4.40;;
62037;SDS011;47991;42.974;12.082;2023-05-24T00:50:00;8.40;;;4.30;;
62037;SDS011;47991;42.974;12.082;2023-05-24T00:52:28;8.70;;;4.60;;
62037;SDS011;47991;42.974;12.082;2023-05-24T00:54:55;9.80;;;4.20;;
62037;SDS011;47991;42.974;12.082;2023-05-24T00:57:22;7.90;;;4.30;;
62037;SDS011;47991;42.974;12.082;2023-05-24T00:59:49;11.20;;;4.50;;
62037;SDS011;47991;42.974;12.082;2023-05-24T01:02:16;9.10;;;4.50;;
62037;SDS011;47991;42.974;12.082;2023-05-24T01:04:43;15.80;;;5.00;;
62037;SDS011;47991;42.974;12.082;2023-05-24T01:12:42;10.40;;;4.30;;
62037;SDS011;47991;42.974;12.082;2023-05-24T01:18:04;8.50;;;4.10;;
62037;SDS011;47991;42.974;12.082;2023-05-24T01:20:36;9.60;;;3.80;;
62037;SDS011;47991;42.974;12.082;2023-05-24T01:25:45;8.20;;;4.10;;
62037;SDS011;47991;42.974;12.082;2023-05-24T01:30:46;11.70;;;4.40;;
62037;SDS011;47991;42.974;12.082;2023-05-24T01:33:14;7.10;;;4.30;;
62037;SDS011;47991;42.974;12.082;2023-05-24T01:35:40;9.40;;;4.50;;
62037;SDS011;47991;42.974;12.082;2023-05-24T01:38:08;12.40;;;5.00;;
62037;SDS011;47991;42.974;12.082;2023-05-24T01:40:39;11.20;;;4.90;;
62037;SDS011;47991;42.974;12.082;2023-05-24T01:43:42;11.60;;;4.50;;
62037;SDS011;47991;42.974;12.082;2023-05-24T01:46:07;12.40;;;4.70;;
62037;SDS011;47991;42.974;12.082;2023-05-24T01:51:15;11.10;;;4.90;;
62037;SDS011;47991;42.974;12.082;2023-05-24T01:53:45;17.20;;;5.10;;
62037;SDS011;47991;42.974;12.082;2023-05-24T01:56:12;10.30;;;4.60;;
62037;SDS011;47991;42.974;12.082;2023-05-24T01:58:42;9.90;;;4.70;;
62037;SDS011;47991;42.974;12.082;2023-05-24T02:01:11;9.30;;;5.00;;
62037;SDS011;47991;42.974;12.082;2023-05-24T02:03:39;12.70;;;4.80;;
62037;SDS011;47991;42.974;12.082;2023-05-24T02:06:06;9.90;;;5.30;;
62037;SDS011;47991;42.974;12.082;2023-05-24T02:08:33;8.40;;;5.00;;
62037;SDS011;47991;42.974;12.082;2023-05-24T02:11:00;11.50;;;5.70;;
62037;SDS011;47991;42.974;12.082;2023-05-24T02:13:27;12.40;;;5.70;;
62037;SDS011;47991;42.974;12.082;2023-05-24T02:15:54;8.60;;;5.40;;
62037;SDS011;47991;42.974;12.082;2023-05-24T02:18:21;9.90;;;6.10;;
62037;SDS011;47991;42.974;12.082;2023-05-24T02:20:48;10.50;;;5.50;;
62037;SDS011;47991;42.974;12.082;2023-05-24T02:23:15;10.60;;;5.90;;
62037;SDS011;47991;42.974;12.082;2023-05-24T02:25:42;10.60;;;5.90;;
62037;SDS011;47991;42.974;12.082;2023-05-24T02:28:09;11.10;;;5.20;;
62037;SDS011;47991;42.974;12.082;2023-05-24T02:30:36;11.20;;;5.80;;
62037;SDS011;47991;42.974;12.082;2023-05-24T02:33:03;14.80;;;5.70;;
62037;SDS011;47991;42.974;12.082;2023-05-24T02:35:31;11.50;;;5.60;;
62037;SDS011;47991;42.974;12.082;2023-05-24T02:37:59;11.80;;;4.80;;
62037;SDS011;47991;42.974;12.082;2023-05-24T02:40:26;10.70;;;5.40;;
62037;SDS011;47991;42.974;12.082;2023-05-24T02:42:53;11.70;;;5.50;;
62037;SDS011;47991;42.974;12.082;2023-05-24T02:45:20;11.20;;;5.60;;
62037;SDS011;47991;42.974;12.082;2023-05-24T02:47:47;9.70;;;5.30;;
62037;SDS011;47991;42.974;12.082;2023-05-24T02:50:14;14.20;;;5.90;;
62037;SDS011;47991;42.974;12.082;2023-05-24T02:52:41;10.20;;;6.10;;
62037;SDS011;47991;42.974;12.082;2023-05-24T02:55:08;12.30;;;6.40;;
62037;SDS011;47991;42.974;12.082;2023-05-24T02:57:35;10.70;;;5.40;;
62037;SDS011;47991;42.974;12.082;2023-05-24T03:00:04;11.10;;;5.90;;
62037;SDS011;47991;42.974;12.082;2023-05-24T03:02:34;13.50;;;5.80;;
62037;SDS011;47991;42.974;12.082;2023-05-24T03:05:04;12.70;;;6.20;;
62037;SDS011;47991;42.974;12.082;2023-05-24T03:07:31;11.90;;;5.10;;
62037;SDS011;47991;42.974;12.082;2023-05-24T03:09:58;11.10;;;5.40;;
62037;SDS011;47991;42.974;12.082;2023-05-24T03:12:25;10.30;;;5.60;;
62037;SDS011;47991;42.974;12.082;2023-05-24T03:14:52;12.00;;;5.70;;
62037;SDS011;47991;42.974;12.082;2023-05-24T03:17:18;11.80;;;5.30;;
62037;SDS011;47991;42.974;12.082;2023-05-24T03:19:45;14.00;;;5.60;;
62037;SDS011;47991;42.974;12.082;2023-05-24T03:22:12;11.60;;;5.80;;
62037;SDS011;47991;42.974;12.082;2023-05-24T03:24:39;10.10;;;5.30;;
62037;SDS011;47991;42.974;12.082;2023-05-24T03:27:06;12.80;;;6.30;;
62037;SDS011;47991;42.974;12.082;2023-05-24T03:29:34;11.30;;;5.80;;
62037;SDS011;47991;42.974;12.082;2023-05-24T03:32:01;12.10;;;5.30;;
62037;SDS011;47991;42.974;12.082;2023-05-24T03:34:27;10.40;;;6.30;;
62037;SDS011;47991;42.974;12.082;2023-05-24T03:36:55;12.70;;;6.00;;
62037;SDS011;47991;42.974;12.082;2023-05-24T03:39:22;12.30;;;5.70;;
62037;SDS011;47991;42.974;12.082;2023-05-24T03:41:49;13.20;;;5.90;;
62037;SDS011;47991;42.974;12.082;2023-05-24T03:44:16;11.20;;;5.90;;
62037;SDS011;47991;42.974;12.082;2023-05-24T03:46:43;10.30;;;5.80;;
62037;SDS011;47991;42.974;12.082;2023-05-24T03:49:10;11.90;;;5.10;;
62037;SDS011;47991;42.974;12.082;2023-05-24T03:51:37;10.10;;;4.90;;
62037;SDS011;47991;42.974;12.082;2023-05-24T03:54:04;11.60;;;6.20;;
62037;SDS011;47991;42.974;12.082;2023-05-24T03:56:31;10.40;;;5.90;;
62037;SDS011;47991;42.974;12.082;2023-05-24T03:58:58;14.30;;;6.40;;
62037;SDS011;47991;42.974;12.082;2023-05-24T04:01:29;12.80;;;6.40;;
62037;SDS011;47991;42.974;12.082;2023-05-24T04:03:59;12.80;;;6.90;;
62037;SDS011;47991;42.974;12.082;2023-05-24T04:06:26;12.50;;;6.80;;
62037;SDS011;47991;42.974;12.082;2023-05-24T04:08:54;14.00;;;7.70;;
62037;SDS011;47991;42.974;12.082;2023-05-24T04:11:22;10.90;;;5.80;;
62037;SDS011;47991;42.974;12.082;2023-05-24T04:13:53;18.70;;;7.60;;
62037;SDS011;47991;42.974;12.082;2023-05-24T04:16:21;14.10;;;7.20;;
62037;SDS011;47991;42.974;12.082;2023-05-24T04:18:49;11.50;;;7.20;;
62037;SDS011;47991;42.974;12.082;2023-05-24T04:21:17;12.40;;;5.90;;
62037;SDS011;47991;42.974;12.082;2023-05-24T04:23:44;12.30;;;6.60;;
62037;SDS011;47991;42.974;12.082;2023-05-24T04:26:12;10.50;;;6.00;;
62037;SDS011;47991;42.974;12.082;2023-05-24T04:28:39;14.30;;;7.50;;
62037;SDS011;47991;42.974;12.082;2023-05-24T04:31:07;14.90;;;7.50;;
62037;SDS011;47991;42.974;12.082;2023-05-24T04:33:35;17.90;;;8.50;;
62037;SDS011;47991;42.974;12.082;2023-05-24T04:36:02;12.00;;;6.70;;
62037;SDS011;47991;42.974;12.082;2023-05-24T04:38:29;15.50;;;7.80;;
62037;SDS011;47991;42.974;12.082;2023-05-24T04:40:57;14.30;;;7.90;;
62037;SDS011;47991;42.974;12.082;2023-05-24T04:43:25;14.30;;;8.50;;
62037;SDS011;47991;42.974;12.082;2023-05-24T04:45:52;17.80;;;9.00;;
62037;SDS011;47991;42.974;12.082;2023-05-24T04:48:22;18.90;;;9.70;;
62037;SDS011;47991;42.974;12.082;2023-05-24T04:50:50;16.60;;;9.30;;
62037;SDS011;47991;42.974;12.082;2023-05-24T04:53:18;16.00;;;9.60;;
62037;SDS011;47991;42.974;12.082;2023-05-24T04:55:46;17.50;;;9.60;;
62037;SDS011;47991;42.974;12.082;2023-05-24T04:58:13;14.30;;;8.00;;
62037;SDS011;47991;42.974;12.082;2023-05-24T05:00:41;13.00;;;6.80;;
62037;SDS011;47991;42.974;12.082;2023-05-24T05:03:09;14.20;;;6.90;;
62037;SDS011;47991;42.974;12.082;2023-05-24T05:05:36;16.30;;;7.70;;
62037;SDS011;47991;42.974;12.082;2023-05-24T05:08:03;15.10;;;7.00;;
62037;SDS011;47991;42.974;12.082;2023-05-24T05:10:32;13.50;;;6.80;;
62037;SDS011;47991;42.974;12.082;2023-05-24T05:12:58;15.60;;;7.00;;
62037;SDS011;47991;42.974;12.082;2023-05-24T05:15:25;12.50;;;7.00;;
62037;SDS011;47991;42.974;12.082;2023-05-24T05:17:53;14.80;;;7.30;;
62037;SDS011;47991;42.974;12.082;2023-05-24T05:20:20;11.60;;;6.90;;
62037;SDS011;47991;42.974;12.082;2023-05-24T05:22:48;13.30;;;6.70;;
62037;SDS011;47991;42.974;12.082;2023-05-24T05:25:15;16.00;;;6.80;;
62037;SDS011;47991;42.974;12.082;2023-05-24T05:27:42;10.30;;;5.70;;
62037;SDS011;47991;42.974;12.082;2023-05-24T05:30:09;13.50;;;6.60;;
62037;SDS011;47991;42.974;12.082;2023-05-24T05:32:36;11.80;;;5.60;;
62037;SDS011;47991;42.974;12.082;2023-05-24T05:35:03;11.90;;;6.60;;
62037;SDS011;47991;42.974;12.082;2023-05-24T05:37:31;11.10;;;6.00;;
62037;SDS011;47991;42.974;12.082;2023-05-24T05:39:57;10.90;;;6.10;;
62037;SDS011;47991;42.974;12.082;2023-05-24T05:42:24;12.30;;;5.70;;
62037;SDS011;47991;42.974;12.082;2023-05-24T05:44:51;13.80;;;5.40;;
62037;SDS011;47991;42.974;12.082;2023-05-24T05:47:18;9.70;;;4.90;;
62037;SDS011;47991;42.974;12.082;2023-05-24T05:49:45;9.90;;;5.60;;
62037;SDS011;47991;42.974;12.082;2023-05-24T05:52:12;12.00;;;5.70;;
62037;SDS011;47991;42.974;12.082;2023-05-24T05:54:39;18.80;;;6.30;;
62037;SDS011;47991;42.974;12.082;2023-05-24T05:57:06;12.10;;;5.70;;
62037;SDS011;47991;42.974;12.082;2023-05-24T05:59:35;14.10;;;5.50;;
62037;SDS011;47991;42.974;12.082;2023-05-24T06:02:03;9.90;;;4.60;;
62037;SDS011;47991;42.974;12.082;2023-05-24T06:04:32;9.20;;;4.70;;
62037;SDS011;47991;42.974;12.082;2023-05-24T06:06:59;11.20;;;5.00;;
62037;SDS011;47991;42.974;12.082;2023-05-24T06:09:26;9.20;;;5.70;;
62037;SDS011;47991;42.974;12.082;2023-05-24T06:11:53;10.70;;;5.30;;
62037;SDS011;47991;42.974;12.082;2023-05-24T06:14:20;7.80;;;4.70;;
62037;SDS011;47991;42.974;12.082;2023-05-24T06:16:47;9.50;;;5.50;;
62037;SDS011;47991;42.974;12.082;2023-05-24T06:19:14;14.70;;;6.10;;
62037;SDS011;47991;42.974;12.082;2023-05-24T06:21:42;8.00;;;5.10;;
62037;SDS011;47991;42.974;12.082;2023-05-24T06:24:13;10.10;;;4.90;;
62037;SDS011;47991;42.974;12.082;2023-05-24T06:26:43;8.40;;;5.10;;
62037;SDS011;47991;42.974;12.082;2023-05-24T06:29:10;8.10;;;4.80;;
62037;SDS011;47991;42.974;12.082;2023-05-24T06:31:37;7.70;;;5.20;;
62037;SDS011;47991;42.974;12.082;2023-05-24T06:34:04;8.60;;;5.80;;
62037;SDS011;47991;42.974;12.082;2023-05-24T06:36:31;9.80;;;5.60;;
62037;SDS011;47991;42.974;12.082;2023-05-24T06:39:08;9.30;;;5.10;;
62037;SDS011;47991;42.974;12.082;2023-05-24T06:41:36;12.90;;;6.50;;
62037;SDS011;47991;42.974;12.082;2023-05-24T06:44:04;11.80;;;6.40;;
62037;SDS011;47991;42.974;12.082;2023-05-24T06:46:31;10.60;;;6.20;;
62037;SDS011;47991;42.974;12.082;2023-05-24T06:48:58;9.90;;;5.70;;
62037;SDS011;47991;42.974;12.082;2023-05-24T06:51:25;8.00;;;4.80;;
62037;SDS011;47991;42.974;12.082;2023-05-24T06:53:52;12.70;;;6.70;;
62037;SDS011;47991;42.974;12.082;2023-05-24T06:56:19;11.70;;;5.90;;
62037;SDS011;47991;42.974;12.082;2023-05-24T06:58:46;14.90;;;5.80;;
62037;SDS011;47991;42.974;12.082;2023-05-24T07:01:13;10.10;;;6.20;;
62037;SDS011;47991;42.974;12.082;2023-05-24T07:03:40;11.90;;;6.60;;
62037;SDS011;47991;42.974;12.082;2023-05-24T07:06:07;8.60;;;4.80;;
62037;SDS011;47991;42.974;12.082;2023-05-24T07:08:36;10.30;;;5.70;;
62037;SDS011;47991;42.974;12.082;2023-05-24T07:11:02;11.30;;;5.60;;
62037;SDS011;47991;42.974;12.082;2023-05-24T07:13:29;10.60;;;6.30;;
62037;SDS011;47991;42.974;12.082;2023-05-24T07:15:56;20.60;;;7.70;;
62037;SDS011;47991;42.974;12.082;2023-05-24T07:18:23;10.90;;;6.00;;
62037;SDS011;47991;42.974;12.082;2023-05-24T07:20:50;10.50;;;6.50;;
62037;SDS011;47991;42.974;12.082;2023-05-24T07:23:17;10.30;;;6.20;;
62037;SDS011;47991;42.974;12.082;2023-05-24T07:25:44;9.60;;;6.00;;
62037;SDS011;47991;42.974;12.082;2023-05-24T07:28:11;9.50;;;5.70;;
62037;SDS011;47991;42.974;12.082;2023-05-24T07:30:40;12.80;;;7.20;;
62037;SDS011;47991;42.974;12.082;2023-05-24T07:33:07;11.00;;;5.90;;
62037;SDS011;47991;42.974;12.082;2023-05-24T07:35:34;7.60;;;4.90;;
62037;SDS011;47991;42.974;12.082;2023-05-24T07:38:01;12.00;;;6.80;;
62037;SDS011;47991;42.974;12.082;2023-05-24T07:40:27;12.40;;;6.10;;
62037;SDS011;47991;42.974;12.082;2023-05-24T07:42:54;13.30;;;6.40;;
62037;SDS011;47991;42.974;12.082;2023-05-24T07:45:21;11.20;;;5.20;;
62037;SDS011;47991;42.974;12.082;2023-05-24T07:53:01;9.70;;;4.90;;
62037;SDS011;47991;42.974;12.082;2023-05-24T07:56:08;14.70;;;5.70;;
62037;SDS011;47991;42.974;12.082;2023-05-24T07:58:35;9.80;;;5.40;;
62037;SDS011;47991;42.974;12.082;2023-05-24T08:01:04;11.60;;;5.60;;
62037;SDS011;47991;42.974;12.082;2023-05-24T08:03:33;13.80;;;5.30;;
62037;SDS011;47991;42.974;12.082;2023-05-24T08:06:00;13.20;;;5.70;;
62037;SDS011;47991;42.974;12.082;2023-05-24T08:08:27;11.70;;;5.70;;
62037;SDS011;47991;42.974;12.082;2023-05-24T08:10:53;12.90;;;5.10;;
62037;SDS011;47991;42.974;12.082;2023-05-24T08:13:20;9.60;;;4.90;;
62037;SDS011;47991;42.974;12.082;2023-05-24T08:15:47;12.40;;;5.10;;
62037;SDS011;47991;42.974;12.082;2023-05-24T08:18:14;13.20;;;5.30;;
62037;SDS011;47991;42.974;12.082;2023-05-24T08:20:43;8.60;;;4.70;;
62037;SDS011;47991;42.974;12.082;2023-05-24T08:23:18;8.90;;;4.40;;
62037;SDS011;47991;42.974;12.082;2023-05-24T08:25:44;8.70;;;4.40;;
62037;SDS011;47991;42.974;12.082;2023-05-24T08:28:11;7.60;;;4.80;;
62037;SDS011;47991;42.974;12.082;2023-05-24T08:30:38;8.10;;;4.40;;
62037;SDS011;47991;42.974;12.082;2023-05-24T08:33:05;9.60;;;4.20;;
62037;SDS011;47991;42.974;12.082;2023-05-24T08:35:32;7.90;;;4.50;;
62037;SDS011;47991;42.974;12.082;2023-05-24T08:38:01;8.80;;;4.10;;
62037;SDS011;47991;42.974;12.082;2023-05-24T08:40:28;8.80;;;4.40;;
62037;SDS011;47991;42.974;12.082;2023-05-24T08:42:55;8.20;;;4.20;;
62037;SDS011;47991;42.974;12.082;2023-05-24T08:45:29;8.30;;;4.20;;
62037;SDS011;47991;42.974;12.082;2023-05-24T08:47:58;6.70;;;3.90;;
62037;SDS011;47991;42.974;12.082;2023-05-24T08:50:26;8.50;;;3.90;;
62037;SDS011;47991;42.974;12.082;2023-05-24T08:52:53;11.70;;;3.60;;
62037;SDS011;47991;42.974;12.082;2023-05-24T08:55:23;9.30;;;3.90;;
62037;SDS011;47991;42.974;12.082;2023-05-24T08:57:50;9.20;;;4.10;;
62037;SDS011;47991;42.974;12.082;2023-05-24T09:00:18;7.70;;;3.60;;
62037;SDS011;47991;42.974;12.082;2023-05-24T09:02:45;8.70;;;4.00;;
62037;SDS011;47991;42.974;12.082;2023-05-24T09:05:13;7.50;;;3.40;;
62037;SDS011;47991;42.974;12.082;2023-05-24T09:07:43;8.50;;;3.40;;
62037;SDS011;47991;42.974;12.082;2023-05-24T09:10:10;9.10;;;3.70;;
62037;SDS011;47991;42.974;12.082;2023-05-24T09:12:38;7.10;;;3.50;;
62037;SDS011;47991;42.974;12.082;2023-05-24T09:15:10;8.30;;;3.70;;
62037;SDS011;47991;42.974;12.082;2023-05-24T09:17:37;8.40;;;4.40;;
62037;SDS011;47991;42.974;12.082;2023-05-24T09:20:06;7.10;;;3.70;;
62037;SDS011;47991;42.974;12.082;2023-05-24T09:22:34;7.00;;;3.60;;
62037;SDS011;47991;42.974;12.082;2023-05-24T09:25:04;7.00;;;3.80;;
62037;SDS011;47991;42.974;12.082;2023-05-24T09:27:32;8.80;;;3.80;;
62037;SDS011;47991;42.974;12.082;2023-05-24T09:30:00;7.30;;;3.90;;
62037;SDS011;47991;42.974;12.082;2023-05-24T09:32:30;7.00;;;3.90;;
62037;SDS011;47991;42.974;12.082;2023-05-24T09:34:57;8.70;;;3.50;;
62037;SDS011;47991;42.974;12.082;2023-05-24T09:37:25;9.30;;;3.70;;
62037;SDS011;47991;42.974;12.082;2023-05-24T09:39:54;8.30;;;4.00;;
62037;SDS011;47991;42.974;12.082;2023-05-24T09:42:24;9.70;;;3.90;;
62037;SDS011;47991;42.974;12.082;2023-05-24T09:45:03;9.10;;;3.90;;
62037;SDS011;47991;42.974;12.082;2023-05-24T09:47:36;7.30;;;3.40;;
62037;SDS011;47991;42.974;12.082;2023-05-24T09:50:14;7.50;;;3.80;;
62037;SDS011;47991;42.974;12.082;2023-05-24T09:52:44;6.40;;;3.30;;
62037;SDS011;47991;42.974;12.082;2023-05-24T09:55:17;9.90;;;4.10;;
62037;SDS011;47991;42.974;12.082;2023-05-24T09:58:01;6.20;;;3.30;;
62037;SDS011;47991;42.974;12.082;2023-05-24T10:00:38;7.50;;;3.60;;
62037;SDS011;47991;42.974;12.082;2023-05-24T10:03:07;7.50;;;3.50;;
62037;SDS011;47991;42.974;12.082;2023-05-24T10:05:36;7.70;;;3.70;;
62037;SDS011;47991;42.974;12.082;2023-05-24T10:13:04;7.20;;;3.50;;
62037;SDS011;47991;42.974;12.082;2023-05-24T10:15:33;8.10;;;3.90;;
62037;SDS011;47991;42.974;12.082;2023-05-24T10:18:00;7.80;;;3.50;;
62037;SDS011;47991;42.974;12.082;2023-05-24T10:20:27;6.90;;;3.50;;
62037;SDS011;47991;42.974;12.082;2023-05-24T10:22:58;5.00;;;2.90;;
62037;SDS011;47991;42.974;12.082;2023-05-24T10:25:27;6.90;;;3.50;;
62037;SDS011;47991;42.974;12.082;2023-05-24T10:28:03;7.90;;;3.80;;
62037;SDS011;47991;42.974;12.082;2023-05-24T10:33:04;6.60;;;3.20;;
62037;SDS011;47991;42.974;12.082;2023-05-24T10:35:35;7.00;;;3.60;;
62037;SDS011;47991;42.974;12.082;2023-05-24T10:38:04;6.40;;;3.40;;
62037;SDS011;47991;42.974;12.082;2023-05-24T10:40:32;7.70;;;4.00;;
62037;SDS011;47991;42.974;12.082;2023-05-24T10:43:04;7.60;;;3.50;;
62037;SDS011;47991;42.974;12.082;2023-05-24T10:45:37;9.60;;;3.90;;
62037;SDS011;47991;42.974;12.082;2023-05-24T10:50:39;7.60;;;3.50;;
62037;SDS011;47991;42.974;12.082;2023-05-24T10:53:11;7.30;;;3.50;;
62037;SDS011;47991;42.974;12.082;2023-05-24T10:56:02;7.30;;;3.30;;
62037;SDS011;47991;42.974;12.082;2023-05-24T10:58:44;7.00;;;3.80;;
62037;SDS011;47991;42.974;12.082;2023-05-24T11:01:27;6.60;;;3.60;;
62037;SDS011;47991;42.974;12.082;2023-05-24T11:04:06;6.50;;;3.90;;
62037;SDS011;47991;42.974;12.082;2023-05-24T11:06:52;7.10;;;3.50;;
62037;SDS011;47991;42.974;12.082;2023-05-24T11:09:21;7.00;;;3.60;;
62037;SDS011;47991;42.974;12.082;2023-05-24T11:11:49;6.30;;;3.50;;
62037;SDS011;47991;42.974;12.082;2023-05-24T11:14:24;6.60;;;3.80;;
62037;SDS011;47991;42.974;12.082;2023-05-24T11:16:54;7.40;;;3.70;;
62037;SDS011;47991;42.974;12.082;2023-05-24T11:19:34;7.20;;;3.50;;
62037;SDS011;47991;42.974;12.082;2023-05-24T11:22:06;9.20;;;3.70;;
62037;SDS011;47991;42.974;12.082;2023-05-24T11:24:34;7.80;;;3.70;;
62037;SDS011;47991;42.974;12.082;2023-05-24T11:27:02;8.20;;;3.70;;
62037;SDS011;47991;42.974;12.082;2023-05-24T11:29:29;8.80;;;3.90;;
62037;SDS011;47991;42.974;12.082;2023-05-24T11:31:57;7.20;;;3.60;;
62037;SDS011;47991;42.974;12.082;2023-05-24T11:34:30;7.20;;;3.70;;
62037;SDS011;47991;42.974;12.082;2023-05-24T11:36:59;9.50;;;4.00;;
62037;SDS011;47991;42.974;12.082;2023-05-24T11:39:28;8.20;;;3.30;;
62037;SDS011;47991;42.974;12.082;2023-05-24T11:41:58;6.60;;;3.90;;
62037;SDS011;47991;42.974;12.082;2023-05-24T11:44:28;9.80;;;3.80;;
62037;SDS011;47991;42.974;12.082;2023-05-24T11:46:58;7.20;;;3.60;;
62037;SDS011;47991;42.974;12.082;2023-05-24T11:49:25;7.80;;;3.80;;
62037;SDS011;47991;42.974;12.082;2023-05-24T11:51:54;8.50;;;3.60;;
62037;SDS011;47991;42.974;12.082;2023-05-24T11:54:26;6.70;;;3.80;;
62037;SDS011;47991;42.974;12.082;2023-05-24T11:56:54;6.60;;;3.60;;
62037;SDS011;47991;42.974;12.082;2023-05-24T12:01:50;6.30;;;3.30;;
62037;SDS011;47991;42.974;12.082;2023-05-24T12:04:26;7.40;;;3.80;;
62037;SDS011;47991;42.974;12.082;2023-05-24T12:06:54;6.60;;;3.90;;
62037;SDS011;47991;42.974;12.082;2023-05-24T12:09:22;7.00;;;3.90;;
62037;SDS011;47991;42.974;12.082;2023-05-24T12:11:50;5.80;;;3.60;;
62037;SDS011;47991;42.974;12.082;2023-05-24T12:14:21;7.10;;;3.60;;
62037;SDS011;47991;42.974;12.082;2023-05-24T12:16:53;7.20;;;4.00;;
62037;SDS011;47991;42.974;12.082;2023-05-24T12:19:24;7.40;;;3.90;;
62037;SDS011;47991;42.974;12.082;2023-05-24T12:21:55;7.30;;;3.90;;
62037;SDS011;47991;42.974;12.082;2023-05-24T12:24:24;8.60;;;3.80;;
62037;SDS011;47991;42.974;12.082;2023-05-24T12:26:51;8.20;;;3.90;;
62037;SDS011;47991;42.974;12.082;2023-05-24T12:29:23;7.30;;;3.60;;
62037;SDS011;47991;42.974;12.082;2023-05-24T12:31:50;7.50;;;3.60;;
62037;SDS011;47991;42.974;12.082;2023-05-24T12:34:19;10.00;;;3.90;;
62037;SDS011;47991;42.974;12.082;2023-05-24T12:36:46;7.60;;;4.10;;
62037;SDS011;47991;42.974;12.082;2023-05-24T12:39:24;7.70;;;3.70;;
62037;SDS011;47991;42.974;12.082;2023-05-24T12:42:00;7.00;;;3.40;;
62037;SDS011;47991;42.974;12.082;2023-05-24T12:44:29;8.70;;;4.40;;
62037;SDS011;47991;42.974;12.082;2023-05-24T12:46:59;8.60;;;4.10;;
62037;SDS011;47991;42.974;12.082;2023-05-24T12:49:27;8.20;;;4.30;;
62037;SDS011;47991;42.974;12.082;2023-05-24T12:51:55;9.90;;;4.20;;
62037;SDS011;47991;42.974;12.082;2023-05-24T12:54:23;6.70;;;3.30;;
62037;SDS011;47991;42.974;12.082;2023-05-24T12:56:52;10.20;;;4.20;;
62037;SDS011;47991;42.974;12.082;2023-05-24T12:59:19;8.40;;;4.00;;
62037;SDS011;47991;42.974;12.082;2023-05-24T13:01:47;8.40;;;4.00;;
62037;SDS011;47991;42.974;12.082;2023-05-24T13:06:46;6.90;;;3.50;;
62037;SDS011;47991;42.974;12.082;2023-05-24T13:09:14;6.30;;;3.10;;
62037;SDS011;47991;42.974;12.082;2023-05-24T13:11:43;6.60;;;3.60;;
62037;SDS011;47991;42.974;12.082;2023-05-24T13:14:11;8.10;;;3.40;;
62037;SDS011;47991;42.974;12.082;2023-05-24T13:16:38;10.80;;;4.00;;
62037;SDS011;47991;42.974;12.082;2023-05-24T13:19:05;8.50;;;3.90;;
62037;SDS011;47991;42.974;12.082;2023-05-24T13:21:32;8.30;;;3.30;;
62037;SDS011;47991;42.974;12.082;2023-05-24T13:23:59;6.20;;;3.10;;
62037;SDS011;47991;42.974;12.082;2023-05-24T13:26:25;6.00;;;3.00;;
62037;SDS011;47991;42.974;12.082;2023-05-24T13:28:53;8.70;;;3.30;;
62037;SDS011;47991;42.974;12.082;2023-05-24T13:31:19;6.60;;;3.00;;
62037;SDS011;47991;42.974;12.082;2023-05-24T13:33:46;5.90;;;2.80;;
62037;SDS011;47991;42.974;12.082;2023-05-24T13:36:14;6.30;;;3.30;;
62037;SDS011;47991;42.974;12.082;2023-05-24T13:38:42;9.90;;;3.20;;
62037;SDS011;47991;42.974;12.082;2023-05-24T13:41:09;8.00;;;3.70;;
62037;SDS011;47991;42.974;12.082;2023-05-24T13:43:36;6.60;;;3.40;;
62037;SDS011;47991;42.974;12.082;2023-05-24T13:46:03;8.40;;;3.60;;
62037;SDS011;47991;42.974;12.082;2023-05-24T13:48:30;8.00;;;3.40;;
62037;SDS011;47991;42.974;12.082;2023-05-24T13:50:57;6.60;;;3.10;;
62037;SDS011;47991;42.974;12.082;2023-05-24T13:53:24;9.90;;;3.90;;
62037;SDS011;47991;42.974;12.082;2023-05-24T13:55:52;7.70;;;3.40;;
62037;SDS011;47991;42.974;12.082;2023-05-24T13:58:19;10.20;;;3.40;;
62037;SDS011;47991;42.974;12.082;2023-05-24T14:00:46;7.00;;;3.70;;
62037;SDS011;47991;42.974;12.082;2023-05-24T14:03:13;6.00;;;3.20;;
62037;SDS011;47991;42.974;12.082;2023-05-24T14:05:41;6.30;;;3.60;;
62037;SDS011;47991;42.974;12.082;2023-05-24T14:08:08;9.60;;;3.60;;
62037;SDS011;47991;42.974;12.082;2023-05-24T14:10:35;9.30;;;3.60;;
62037;SDS011;47991;42.974;12.082;2023-05-24T14:13:03;7.50;;;3.60;;
62037;SDS011;47991;42.974;12.082;2023-05-24T14:15:31;5.70;;;3.30;;
62037;SDS011;47991;42.974;12.082;2023-05-24T14:17:59;6.30;;;3.70;;
62037;SDS011;47991;42.974;12.082;2023-05-24T14:20:26;6.00;;;3.00;;
62037;SDS011;47991;42.974;12.082;2023-05-24T14:22:53;6.40;;;3.70;;
62037;SDS011;47991;42.974;12.082;2023-05-24T14:25:20;11.00;;;3.70;;
62037;SDS011;47991;42.974;12.082;2023-05-24T14:27:47;6.20;;;3.60;;
62037;SDS011;47991;42.974;12.082;2023-05-24T14:30:13;10.20;;;3.80;;
62037;SDS011;47991;42.974;12.082;2023-05-24T14:32:41;6.10;;;3.30;;
62037;SDS011;47991;42.974;12.082;2023-05-24T14:35:07;9.00;;;3.40;;
62037;SDS011;47991;42.974;12.082;2023-05-24T14:37:34;7.20;;;3.80;;
62037;SDS011;47991;42.974;12.082;2023-05-24T14:40:03;7.90;;;3.60;;
62037;SDS011;47991;42.974;12.082;2023-05-24T14:42:31;6.70;;;3.20;;
62037;SDS011;47991;42.974;12.082;2023-05-24T14:44:58;6.00;;;3.70;;
62037;SDS011;47991;42.974;12.082;2023-05-24T14:47:25;6.40;;;3.50;;
62037;SDS011;47991;42.974;12.082;2023-05-24T14:49:52;5.70;;;3.40;;
62037;SDS011;47991;42.974;12.082;2023-05-24T14:52:19;9.60;;;3.30;;
62037;SDS011;47991;42.974;12.082;2023-05-24T14:54:46;6.30;;;3.30;;
62037;SDS011;47991;42.974;12.082;2023-05-24T14:57:13;6.60;;;3.60;;
62037;SDS011;47991;42.974;12.082;2023-05-24T14:59:41;6.10;;;3.40;;
62037;SDS011;47991;42.974;12.082;2023-05-24T15:02:09;7.70;;;3.20;;
62037;SDS011;47991;42.974;12.082;2023-05-24T15:04:36;8.20;;;3.80;;
62037;SDS011;47991;42.974;12.082;2023-05-24T15:07:03;7.40;;;3.70;;
62037;SDS011;47991;42.974;12.082;2023-05-24T15:09:30;9.20;;;4.10;;
62037;SDS011;47991;42.974;12.082;2023-05-24T15:11:56;8.90;;;3.60;;